sensor_id;sensor_type;location;lat;lon;timestamp;pressure;altitude;pressure_sealevel;temperature;humidity
48790;BME280;41718;51.980;5.734;2023-06-10T00:02:40;101232.94;;;19.81;100.00
48790;BME280;41718;51.980;5.734;2023-06-10T00:07:42;101239.22;;;19.71;100.00
48790;BME280;41718;51.980;5.734;2023-06-10T00:12:44;101227.09;;;19.62;100.00
48790;BME280;41718;51.980;5.734;2023-06-10T00:17:45;101231.47;;;19.62;100.00
48790;BME280;41718;51.980;5.734;2023-06-10T00:22:47;101236.84;;;19.54;100.00
48790;BME280;41718;51.980;5.734;2023-06-10T00:27:50;101226.47;;;19.46;100.00
48790;BME280;41718;51.980;5.734;2023-06-10T00:32:52;101223.16;;;19.35;100.00
48790;BME280;41718;51.980;5.734;2023-06-10T00:37:53;101241.53;;;19.32;100.00
48790;BME280;41718;51.980;5.734;2023-06-10T00:42:54;101238.19;;;19.22;100.00
48790;BME280;41718;51.980;5.734;2023-06-10T00:47:56;101239.19;;;19.14;100.00
48790;BME280;41718;51.980;5.734;2023-06-10T00:52:59;101245.34;;;19.11;100.00
48790;BME280;41718;51.980;5.734;2023-06-10T00:58:03;101252.41;;;19.08;100.00
48790;BME280;41718;51.980;5.734;2023-06-10T01:03:05;101249.84;;;19.01;100.00
48790;BME280;41718;51.980;5.734;2023-06-10T01:13:50;101243.09;;;18.82;100.00
48790;BME280;41718;51.980;5.734;2023-06-10T01:18:52;101254.47;;;18.81;100.00
48790;BME280;41718;51.980;5.734;2023-06-10T01:23:56;101251.94;;;18.75;100.00
48790;BME280;41718;51.980;5.734;2023-06-10T01:29:14;101259.88;;;18.66;100.00
48790;BME280;41718;51.980;5.734;2023-06-10T01:34:18;101266.97;;;18.58;100.00
48790;BME280;41718;51.980;5.734;2023-06-10T01:39:23;101261.91;;;18.41;100.00
48790;BME280;41718;51.980;5.734;2023-06-10T01:44:25;101255.88;;;18.34;100.00
48790;BME280;41718;51.980;5.734;2023-06-10T01:49:27;101262.94;;;18.27;100.00
48790;BME280;41718;51.980;5.734;2023-06-10T01:54:29;101262.06;;;18.25;100.00
48790;BME280;41718;51.980;5.734;2023-06-10T01:59:31;101260.34;;;18.24;100.00
48790;BME280;41718;51.980;5.734;2023-06-10T02:04:33;101267.41;;;18.16;100.00
48790;BME280;41718;51.980;5.734;2023-06-10T02:09:35;101268.31;;;18.15;100.00
48790;BME280;41718;51.980;5.734;2023-06-10T02:14:37;101264.00;;;18.07;100.00
48790;BME280;41718;51.980;5.734;2023-06-10T02:19:39;101272.78;;;18.01;100.00
48790;BME280;41718;51.980;5.734;2023-06-10T02:24:43;101278.06;;;17.96;100.00
48790;BME280;41718;51.980;5.734;2023-06-10T02:29:45;101266.78;;;17.87;100.00
48790;BME280;41718;51.980;5.734;2023-06-10T02:34:47;101280.75;;;17.86;100.00
48790;BME280;41718;51.980;5.734;2023-06-10T02:39:50;101271.25;;;17.76;100.00
48790;BME280;41718;51.980;5.734;2023-06-10T02:44:51;101272.13;;;17.71;100.00
48790;BME280;41718;51.980;5.734;2023-06-10T02:49:53;101277.47;;;17.59;100.00
48790;BME280;41718;51.980;5.734;2023-06-10T02:54:55;101279.16;;;17.63;100.00
48790;BME280;41718;51.980;5.734;2023-06-10T02:59:56;101267.88;;;17.52;100.00
48790;BME280;41718;51.980;5.734;2023-06-10T03:04:59;101267.91;;;17.54;100.00
48790;BME280;41718;51.980;5.734;2023-06-10T03:10:01;101261.81;;;17.53;100.00
48790;BME280;41718;51.980;5.734;2023-06-10T03:15:03;101264.44;;;17.50;100.00
48790;BME280;41718;51.980;5.734;2023-06-10T03:20:05;101269.69;;;17.45;100.00
48790;BME280;41718;51.980;5.734;2023-06-10T03:25:09;101269.75;;;17.36;100.00
48790;BME280;41718;51.980;5.734;2023-06-10T03:30:15;101277.59;;;17.35;100.00
48790;BME280;41718;51.980;5.734;2023-06-10T03:35:17;101275.88;;;17.29;100.00
48790;BME280;41718;51.980;5.734;2023-06-10T03:40:18;101275.06;;;17.26;100.00
48790;BME280;41718;51.980;5.734;2023-06-10T03:45:20;101275.06;;;17.21;100.00
48790;BME280;41718;51.980;5.734;2023-06-10T03:50:22;101269.91;;;17.13;100.00
48790;BME280;41718;51.980;5.734;2023-06-10T03:55:24;101267.28;;;17.07;100.00
48790;BME280;41718;51.980;5.734;2023-06-10T04:00:26;101270.78;;;17.09;100.00
48790;BME280;41718;51.980;5.734;2023-06-10T04:05:28;101263.78;;;17.11;100.00
48790;BME280;41718;51.980;5.734;2023-06-10T04:10:30;101271.66;;;17.05;100.00
48790;BME280;41718;51.980;5.734;2023-06-10T04:15:31;101276.00;;;17.09;100.00
48790;BME280;41718;51.980;5.734;2023-06-10T04:20:36;101278.63;;;17.11;100.00
48790;BME280;41718;51.980;5.734;2023-06-10T04:25:37;101283.88;;;17.08;100.00
48790;BME280;41718;51.980;5.734;2023-06-10T04:30:39;101283.84;;;17.11;100.00
48790;BME280;41718;51.980;5.734;2023-06-10T04:35:40;101286.38;;;17.23;100.00
48790;BME280;41718;51.980;5.734;2023-06-10T04:40:42;101287.19;;;17.37;100.00
48790;BME280;41718;51.980;5.734;2023-06-10T04:45:43;101290.56;;;17.52;100.00
48790;BME280;41718;51.980;5.734;2023-06-10T04:50:46;101290.50;;;17.65;100.00
48790;BME280;41718;51.980;5.734;2023-06-10T04:55:48;101296.53;;;17.78;100.00
48790;BME280;41718;51.980;5.734;2023-06-10T05:00:49;101301.63;;;17.95;100.00
48790;BME280;41718;51.980;5.734;2023-06-10T05:05:51;101302.34;;;18.14;100.00
48790;BME280;41718;51.980;5.734;2023-06-10T05:10:52;101303.00;;;18.39;100.00
48790;BME280;41718;51.980;5.734;2023-06-10T05:15:54;101302.88;;;18.51;100.00
48790;BME280;41718;51.980;5.734;2023-06-10T05:20:55;101307.94;;;18.69;100.00
48790;BME280;41718;51.980;5.734;2023-06-10T05:25:57;101312.81;;;18.98;100.00
48790;BME280;41718;51.980;5.734;2023-06-10T05:30:59;101316.00;;;19.25;100.00
48790;BME280;41718;51.980;5.734;2023-06-10T05:36:01;101320.19;;;19.38;100.00
48790;BME280;41718;51.980;5.734;2023-06-10T05:41:03;101326.03;;;19.60;100.00
48790;BME280;41718;51.980;5.734;2023-06-10T05:46:05;101319.59;;;19.79;100.00
48790;BME280;41718;51.980;5.734;2023-06-10T05:51:07;101325.16;;;20.13;100.00
48790;BME280;41718;51.980;5.734;2023-06-10T05:56:08;101336.03;;;20.45;100.00
48790;BME280;41718;51.980;5.734;2023-06-10T06:01:10;101341.94;;;20.57;100.00
48790;BME280;41718;51.980;5.734;2023-06-10T06:06:11;101345.31;;;21.09;100.00
48790;BME280;41718;51.980;5.734;2023-06-10T06:11:13;101339.97;;;21.13;100.00
48790;BME280;41718;51.980;5.734;2023-06-10T06:16:18;101343.31;;;21.20;100.00
48790;BME280;41718;51.980;5.734;2023-06-10T06:21:20;101346.53;;;21.36;100.00
48790;BME280;41718;51.980;5.734;2023-06-10T06:26:21;101348.03;;;21.86;100.00
48790;BME280;41718;51.980;5.734;2023-06-10T06:31:23;101348.38;;;22.08;100.00
48790;BME280;41718;51.980;5.734;2023-06-10T06:36:24;101344.88;;;22.43;100.00
48790;BME280;41718;51.980;5.734;2023-06-10T06:41:27;101350.84;;;22.50;100.00
48790;BME280;41718;51.980;5.734;2023-06-10T06:46:28;101353.25;;;22.92;100.00
48790;BME280;41718;51.980;5.734;2023-06-10T06:51:30;101352.22;;;22.97;100.00
48790;BME280;41718;51.980;5.734;2023-06-10T06:56:31;101362.38;;;22.79;100.00
48790;BME280;41718;51.980;5.734;2023-06-10T07:01:33;101359.84;;;23.36;100.00
48790;BME280;41718;51.980;5.734;2023-06-10T07:06:36;101365.69;;;23.77;100.00
48790;BME280;41718;51.980;5.734;2023-06-10T07:11:39;101360.09;;;23.86;100.00
48790;BME280;41718;51.980;5.734;2023-06-10T07:16:40;101369.72;;;24.15;100.00
48790;BME280;41718;51.980;5.734;2023-06-10T07:21:42;101365.00;;;24.25;100.00
48790;BME280;41718;51.980;5.734;2023-06-10T07:26:43;101365.19;;;24.47;100.00
48790;BME280;41718;51.980;5.734;2023-06-10T07:31:45;101359.97;;;24.44;100.00
48790;BME280;41718;51.980;5.734;2023-06-10T07:36:46;101368.94;;;24.13;100.00
48790;BME280;41718;51.980;5.734;2023-06-10T07:41:48;101367.78;;;24.73;100.00
48790;BME280;41718;51.980;5.734;2023-06-10T07:46:51;101380.19;;;24.96;100.00
48790;BME280;41718;51.980;5.734;2023-06-10T07:51:54;101374.53;;;25.30;100.00
48790;BME280;41718;51.980;5.734;2023-06-10T07:56:56;101382.59;;;25.27;100.00
48790;BME280;41718;51.980;5.734;2023-06-10T08:01:58;101383.97;;;26.05;100.00
48790;BME280;41718;51.980;5.734;2023-06-10T08:06:59;101376.03;;;25.83;100.00
48790;BME280;41718;51.980;5.734;2023-06-10T08:12:01;101373.81;;;25.94;100.00
48790;BME280;41718;51.980;5.734;2023-06-10T08:17:03;101376.88;;;26.05;100.00
48790;BME280;41718;51.980;5.734;2023-06-10T08:22:08;101377.84;;;25.81;99.24
48790;BME280;41718;51.980;5.734;2023-06-10T08:27:10;101378.03;;;26.20;98.21
48790;BME280;41718;51.980;5.734;2023-06-10T08:32:11;101380.81;;;26.59;97.85
48790;BME280;41718;51.980;5.734;2023-06-10T08:37:14;101376.00;;;27.08;97.84
48790;BME280;41718;51.980;5.734;2023-06-10T08:42:22;101376.00;;;27.08;99.88
48790;BME280;41718;51.980;5.734;2023-06-10T08:47:31;101373.09;;;27.52;96.44
48790;BME280;41718;51.980;5.734;2023-06-10T08:52:37;101378.13;;;27.77;95.80
48790;BME280;41718;51.980;5.734;2023-06-10T08:57:42;101376.94;;;27.83;97.17
48790;BME280;41718;51.980;5.734;2023-06-10T09:02:45;101377.03;;;27.43;96.25
48790;BME280;41718;51.980;5.734;2023-06-10T09:07:48;101374.84;;;28.25;94.45
48790;BME280;41718;51.980;5.734;2023-06-10T09:12:50;101374.34;;;28.17;94.26
48790;BME280;41718;51.980;5.734;2023-06-10T09:17:53;101371.34;;;28.42;95.88
48790;BME280;41718;51.980;5.734;2023-06-10T09:22:55;101366.16;;;29.07;93.84
48790;BME280;41718;51.980;5.734;2023-06-10T09:27:57;101362.34;;;29.28;93.01
48790;BME280;41718;51.980;5.734;2023-06-10T09:33:09;101364.38;;;28.40;93.30
48790;BME280;41718;51.980;5.734;2023-06-10T09:38:11;101362.47;;;29.25;91.32
48790;BME280;41718;51.980;5.734;2023-06-10T09:43:13;101360.28;;;29.65;89.91
48790;BME280;41718;51.980;5.734;2023-06-10T09:48:14;101348.66;;;29.82;89.50
48790;BME280;41718;51.980;5.734;2023-06-10T09:53:17;101351.44;;;30.10;88.77
48790;BME280;41718;51.980;5.734;2023-06-10T09:58:33;101349.09;;;29.90;84.47
48790;BME280;41718;51.980;5.734;2023-06-10T10:03:46;101341.56;;;29.97;86.58
48790;BME280;41718;51.980;5.734;2023-06-10T10:08:49;101344.56;;;30.37;83.89
48790;BME280;41718;51.980;5.734;2023-06-10T10:13:52;101347.09;;;30.54;87.43
48790;BME280;41718;51.980;5.734;2023-06-10T10:18:55;101343.84;;;30.63;83.36
48790;BME280;41718;51.980;5.734;2023-06-10T10:24:12;101346.66;;;31.04;80.76
48790;BME280;41718;51.980;5.734;2023-06-10T10:29:27;101333.22;;;30.33;80.77
48790;BME280;41718;51.980;5.734;2023-06-10T10:34:58;101322.69;;;30.74;77.41
48790;BME280;41718;51.980;5.734;2023-06-10T10:40:04;101322.56;;;31.19;77.85
48790;BME280;41718;51.980;5.734;2023-06-10T10:45:06;101313.50;;;31.21;72.78
48790;BME280;41718;51.980;5.734;2023-06-10T10:50:17;101308.78;;;30.98;73.68
48790;BME280;41718;51.980;5.734;2023-06-10T10:55:19;101319.13;;;31.02;73.21
48790;BME280;41718;51.980;5.734;2023-06-10T11:00:28;101302.94;;;31.47;69.97
48790;BME280;41718;51.980;5.734;2023-06-10T11:05:42;101313.41;;;30.66;71.34
48790;BME280;41718;51.980;5.734;2023-06-10T11:10:52;101299.47;;;31.18;67.97
48790;BME280;41718;51.980;5.734;2023-06-10T11:15:57;101295.94;;;31.31;68.25
48790;BME280;41718;51.980;5.734;2023-06-10T11:26:09;101288.59;;;31.75;66.99
48790;BME280;41718;51.980;5.734;2023-06-10T11:31:23;101280.69;;;31.46;62.96
48790;BME280;41718;51.980;5.734;2023-06-10T11:36:26;101278.47;;;31.11;64.09
48790;BME280;41718;51.980;5.734;2023-06-10T11:41:29;101285.34;;;31.16;65.87
48790;BME280;41718;51.980;5.734;2023-06-10T11:46:33;101284.88;;;31.09;64.89
48790;BME280;41718;51.980;5.734;2023-06-10T11:51:43;101280.63;;;31.19;66.00
48790;BME280;41718;51.980;5.734;2023-06-10T11:56:57;101278.41;;;31.67;65.22
48790;BME280;41718;51.980;5.734;2023-06-10T12:01:59;101273.06;;;32.07;66.01
48790;BME280;41718;51.980;5.734;2023-06-10T12:07:01;101271.25;;;32.33;65.12
48790;BME280;41718;51.980;5.734;2023-06-10T12:12:04;101265.16;;;32.18;66.23
48790;BME280;41718;51.980;5.734;2023-06-10T12:17:23;101264.19;;;31.39;65.05
48790;BME280;41718;51.980;5.734;2023-06-10T12:22:25;101252.75;;;31.77;65.04
48790;BME280;41718;51.980;5.734;2023-06-10T12:27:30;101243.88;;;30.81;65.38
48790;BME280;41718;51.980;5.734;2023-06-10T12:32:44;101251.22;;;31.60;67.28
48790;BME280;41718;51.980;5.734;2023-06-10T12:38:03;101248.72;;;31.84;64.13
48790;BME280;41718;51.980;5.734;2023-06-10T12:43:08;101238.13;;;31.56;64.51
48790;BME280;41718;51.980;5.734;2023-06-10T12:48:17;101250.88;;;31.65;63.72
48790;BME280;41718;51.980;5.734;2023-06-10T12:53:20;101243.13;;;31.48;64.58
48790;BME280;41718;51.980;5.734;2023-06-10T12:58:23;101250.53;;;31.30;65.34
48790;BME280;41718;51.980;5.734;2023-06-10T13:03:25;101239.69;;;31.46;62.47
48790;BME280;41718;51.980;5.734;2023-06-10T13:08:27;101246.16;;;31.29;64.33
48790;BME280;41718;51.980;5.734;2023-06-10T13:13:29;101243.94;;;31.35;64.16
48790;BME280;41718;51.980;5.734;2023-06-10T13:18:31;101232.91;;;32.07;64.13
48790;BME280;41718;51.980;5.734;2023-06-10T13:23:39;101225.72;;;32.20;61.79
48790;BME280;41718;51.980;5.734;2023-06-10T13:28:40;101224.09;;;31.92;64.75
48790;BME280;41718;51.980;5.734;2023-06-10T13:33:45;101216.50;;;31.05;63.29
48790;BME280;41718;51.980;5.734;2023-06-10T13:38:49;101206.88;;;31.69;61.96
48790;BME280;41718;51.980;5.734;2023-06-10T13:43:51;101202.41;;;31.30;62.07
48790;BME280;41718;51.980;5.734;2023-06-10T13:48:52;101205.44;;;31.38;60.94
48790;BME280;41718;51.980;5.734;2023-06-10T13:53:54;101207.25;;;31.37;61.13
48790;BME280;41718;51.980;5.734;2023-06-10T13:58:58;101195.53;;;30.99;61.17
48790;BME280;41718;51.980;5.734;2023-06-10T14:04:04;101195.34;;;31.29;57.55
48790;BME280;41718;51.980;5.734;2023-06-10T14:09:07;101191.28;;;31.09;58.92
48790;BME280;41718;51.980;5.734;2023-06-10T14:14:12;101192.81;;;30.86;60.98
48790;BME280;41718;51.980;5.734;2023-06-10T14:19:15;101188.53;;;30.96;59.87
48790;BME280;41718;51.980;5.734;2023-06-10T14:24:17;101190.63;;;30.64;58.09
48790;BME280;41718;51.980;5.734;2023-06-10T14:29:19;101189.47;;;30.11;59.02
48790;BME280;41718;51.980;5.734;2023-06-10T14:34:22;101192.72;;;30.45;63.31
48790;BME280;41718;51.980;5.734;2023-06-10T14:39:24;101182.03;;;30.45;61.16
48790;BME280;41718;51.980;5.734;2023-06-10T14:44:26;101183.75;;;30.17;62.38
48790;BME280;41718;51.980;5.734;2023-06-10T14:49:30;101182.50;;;30.08;61.34
48790;BME280;41718;51.980;5.734;2023-06-10T14:54:31;101193.34;;;29.91;62.69
48790;BME280;41718;51.980;5.734;2023-06-10T14:59:36;101187.00;;;29.78;62.98
48790;BME280;41718;51.980;5.734;2023-06-10T15:04:37;101189.88;;;29.89;64.37
48790;BME280;41718;51.980;5.734;2023-06-10T15:09:39;101182.72;;;29.75;63.34
48790;BME280;41718;51.980;5.734;2023-06-10T15:14:42;101178.06;;;29.79;65.12
48790;BME280;41718;51.980;5.734;2023-06-10T15:19:44;101173.28;;;29.70;64.48
48790;BME280;41718;51.980;5.734;2023-06-10T15:24:57;101178.25;;;29.46;65.14
48790;BME280;41718;51.980;5.734;2023-06-10T15:30:33;101177.72;;;29.55;65.43
48790;BME280;41718;51.980;5.734;2023-06-10T15:35:52;101173.44;;;29.37;65.94
48790;BME280;41718;51.980;5.734;2023-06-10T15:40:57;101162.59;;;29.40;65.87
48790;BME280;41718;51.980;5.734;2023-06-10T15:46:01;101173.75;;;29.46;66.71
48790;BME280;41718;51.980;5.734;2023-06-10T15:51:03;101176.13;;;29.21;65.98
48790;BME280;41718;51.980;5.734;2023-06-10T15:56:05;101162.72;;;29.22;67.29
48790;BME280;41718;51.980;5.734;2023-06-10T16:01:06;101169.22;;;29.33;67.18
48790;BME280;41718;51.980;5.734;2023-06-10T16:06:10;101155.13;;;29.30;67.49
48790;BME280;41718;51.980;5.734;2023-06-10T16:11:12;101156.13;;;29.14;67.81
48790;BME280;41718;51.980;5.734;2023-06-10T16:16:14;101155.81;;;29.34;68.21
48790;BME280;41718;51.980;5.734;2023-06-10T16:21:16;101153.00;;;29.67;69.41
48790;BME280;41718;51.980;5.734;2023-06-10T16:26:18;101149.00;;;29.44;69.03
48790;BME280;41718;51.980;5.734;2023-06-10T16:31:19;101147.72;;;29.66;68.49
48790;BME280;41718;51.980;5.734;2023-06-10T16:36:25;101149.00;;;29.44;68.28
48790;BME280;41718;51.980;5.734;2023-06-10T16:41:34;101142.03;;;29.72;68.24
48790;BME280;41718;51.980;5.734;2023-06-10T16:46:39;101140.81;;;30.06;67.73
48790;BME280;41718;51.980;5.734;2023-06-10T16:51:41;101140.13;;;29.88;67.12
48790;BME280;41718;51.980;5.734;2023-06-10T16:56:46;101144.53;;;29.75;68.43
48790;BME280;41718;51.980;5.734;2023-06-10T17:01:49;101138.06;;;29.79;68.02
48790;BME280;41718;51.980;5.734;2023-06-10T17:06:51;101150.38;;;29.96;68.18
48790;BME280;41718;51.980;5.734;2023-06-10T17:11:55;101147.88;;;29.93;67.90
48790;BME280;41718;51.980;5.734;2023-06-10T17:16:57;101154.75;;;29.97;67.99
48790;BME280;41718;51.980;5.734;2023-06-10T17:22:00;101150.09;;;30.29;66.10
48790;BME280;41718;51.980;5.734;2023-06-10T17:27:03;101158.44;;;29.94;68.73
48790;BME280;41718;51.980;5.734;2023-06-10T17:32:05;101158.06;;;29.86;68.30
48790;BME280;41718;51.980;5.734;2023-06-10T17:37:07;101152.63;;;29.73;68.67
48790;BME280;41718;51.980;5.734;2023-06-10T17:42:08;101155.00;;;30.06;68.14
48790;BME280;41718;51.980;5.734;2023-06-10T17:47:12;101158.72;;;29.75;68.66
48790;BME280;41718;51.980;5.734;2023-06-10T17:52:13;101167.56;;;29.76;69.24
48790;BME280;41718;51.980;5.734;2023-06-10T17:57:15;101163.94;;;29.63;70.23
48790;BME280;41718;51.980;5.734;2023-06-10T18:02:20;101163.56;;;29.39;70.29
48790;BME280;41718;51.980;5.734;2023-06-10T18:07:21;101177.44;;;28.98;70.68
48790;BME280;41718;51.980;5.734;2023-06-10T18:12:24;101171.31;;;28.80;72.14
48790;BME280;41718;51.980;5.734;2023-06-10T18:17:26;101171.91;;;28.69;73.70
48790;BME280;41718;51.980;5.734;2023-06-10T18:22:29;101183.09;;;28.60;74.22
48790;BME280;41718;51.980;5.734;2023-06-10T18:27:34;101182.03;;;28.47;74.44
48790;BME280;41718;51.980;5.734;2023-06-10T18:32:35;101193.28;;;28.19;75.38
48790;BME280;41718;51.980;5.734;2023-06-10T18:37:38;101193.41;;;27.83;76.13
48790;BME280;41718;51.980;5.734;2023-06-10T18:42:41;101199.44;;;27.69;76.82
48790;BME280;41718;51.980;5.734;2023-06-10T18:47:43;101202.94;;;27.52;77.43
48790;BME280;41718;51.980;5.734;2023-06-10T18:53:04;101212.75;;;27.33;78.28
48790;BME280;41718;51.980;5.734;2023-06-10T18:58:27;101217.50;;;27.26;79.07
48790;BME280;41718;51.980;5.734;2023-06-10T19:03:36;101225.44;;;27.09;80.16
48790;BME280;41718;51.980;5.734;2023-06-10T19:08:42;101229.88;;;27.08;81.10
48790;BME280;41718;51.980;5.734;2023-06-10T19:13:45;101230.00;;;26.86;81.70
48790;BME280;41718;51.980;5.734;2023-06-10T19:18:59;101238.25;;;26.61;83.87
48790;BME280;41718;51.980;5.734;2023-06-10T19:24:01;101236.94;;;26.51;84.50
48790;BME280;41718;51.980;5.734;2023-06-10T19:29:04;101246.09;;;26.24;85.15
48790;BME280;41718;51.980;5.734;2023-06-10T19:34:06;101243.84;;;26.14;85.66
48790;BME280;41718;51.980;5.734;2023-06-10T19:39:09;101248.34;;;25.92;86.51
48790;BME280;41718;51.980;5.734;2023-06-10T19:44:11;101252.78;;;25.70;87.08
48790;BME280;41718;51.980;5.734;2023-06-10T19:49:13;101266.56;;;25.57;87.31
48790;BME280;41718;51.980;5.734;2023-06-10T19:54:15;101270.53;;;25.47;88.25
48790;BME280;41718;51.980;5.734;2023-06-10T19:59:17;101282.22;;;25.20;89.35
48790;BME280;41718;51.980;5.734;2023-06-10T20:04:18;101286.25;;;25.06;90.04
48790;BME280;41718;51.980;5.734;2023-06-10T20:09:20;101289.22;;;24.97;90.49
48790;BME280;41718;51.980;5.734;2023-06-10T20:14:25;101296.25;;;24.75;92.99
48790;BME280;41718;51.980;5.734;2023-06-10T20:19:27;101291.03;;;24.48;94.83
48790;BME280;41718;51.980;5.734;2023-06-10T20:24:28;101296.50;;;24.17;95.82
48790;BME280;41718;51.980;5.734;2023-06-10T20:29:30;101309.44;;;24.00;96.95
48790;BME280;41718;51.980;5.734;2023-06-10T20:34:32;101306.72;;;23.75;98.84
48790;BME280;41718;51.980;5.734;2023-06-10T20:39:33;101301.22;;;23.54;100.00
48790;BME280;41718;51.980;5.734;2023-06-10T20:44:36;101311.13;;;23.46;100.00
48790;BME280;41718;51.980;5.734;2023-06-10T20:49:38;101324.09;;;23.26;100.00
48790;BME280;41718;51.980;5.734;2023-06-10T20:54:39;101321.06;;;23.09;100.00
48790;BME280;41718;51.980;5.734;2023-06-10T20:59:41;101328.84;;;22.82;100.00
48790;BME280;41718;51.980;5.734;2023-06-10T21:04:44;101324.75;;;22.72;100.00
48790;BME280;41718;51.980;5.734;2023-06-10T21:09:46;101329.31;;;22.65;100.00
48790;BME280;41718;51.980;5.734;2023-06-10T21:14:48;101326.44;;;22.42;100.00
48790;BME280;41718;51.980;5.734;2023-06-10T21:19:50;101327.59;;;22.32;100.00
48790;BME280;41718;51.980;5.734;2023-06-10T21:24:52;101321.09;;;22.09;100.00
48790;BME280;41718;51.980;5.734;2023-06-10T21:29:53;101334.75;;;21.89;100.00
48790;BME280;41718;51.980;5.734;2023-06-10T21:34:55;101333.22;;;21.81;100.00
48790;BME280;41718;51.980;5.734;2023-06-10T21:39:57;101333.47;;;21.70;100.00
48790;BME280;41718;51.980;5.734;2023-06-10T21:44:59;101333.81;;;21.55;100.00
48790;BME280;41718;51.980;5.734;2023-06-10T21:50:00;101337.47;;;21.49;100.00
48790;BME280;41718;51.980;5.734;2023-06-10T21:55:02;101338.84;;;21.25;100.00
48790;BME280;41718;51.980;5.734;2023-06-10T22:00:13;101335.66;;;21.11;100.00
48790;BME280;41718;51.980;5.734;2023-06-10T22:05:15;101345.53;;;21.00;100.00
48790;BME280;41718;51.980;5.734;2023-06-10T22:10:18;101333.44;;;20.89;100.00
48790;BME280;41718;51.980;5.734;2023-06-10T22:15:20;101331.09;;;20.74;100.00
48790;BME280;41718;51.980;5.734;2023-06-10T22:20:22;101320.72;;;20.68;100.00
48790;BME280;41718;51.980;5.734;2023-06-10T22:25:27;101326.16;;;20.57;100.00
48790;BME280;41718;51.980;5.734;2023-06-10T22:30:28;101323.78;;;20.44;100.00
48790;BME280;41718;51.980;5.734;2023-06-10T22:35:30;101323.75;;;20.47;100.00
48790;BME280;41718;51.980;5.734;2023-06-10T22:40:32;101315.25;;;20.31;100.00
48790;BME280;41718;51.980;5.734;2023-06-10T22:45:33;101322.25;;;20.30;100.00
48790;BME280;41718;51.980;5.734;2023-06-10T22:50:35;101323.41;;;20.16;100.00
48790;BME280;41718;51.980;5.734;2023-06-10T22:55:37;101330.34;;;20.20;100.00
48790;BME280;41718;51.980;5.734;2023-06-10T23:00:38;101320.94;;;20.05;100.00
48790;BME280;41718;51.980;5.734;2023-06-10T23:05:40;101318.63;;;19.87;100.00
48790;BME280;41718;51.980;5.734;2023-06-10T23:10:41;101319.69;;;19.73;100.00
48790;BME280;41718;51.980;5.734;2023-06-10T23:15:46;101316.44;;;19.54;100.00
48790;BME280;41718;51.980;5.734;2023-06-10T23:20:47;101320.00;;;19.50;100.00
48790;BME280;41718;51.980;5.734;2023-06-10T23:25:52;101319.16;;;19.48;100.00
48790;BME280;41718;51.980;5.734;2023-06-10T23:30:54;101319.63;;;19.15;100.00
48790;BME280;41718;51.980;5.734;2023-06-10T23:35:56;101314.31;;;19.19;100.00
48790;BME280;41718;51.980;5.734;2023-06-10T23:40:59;101310.16;;;19.03;100.00
48790;BME280;41718;51.980;5.734;2023-06-10T23:46:01;101316.38;;;18.96;100.00
48790;BME280;41718;51.980;5.734;2023-06-10T23:51:02;101306.75;;;18.96;100.00
48790;BME280;41718;51.980;5.734;2023-06-10T23:56:06;101298.09;;;18.90;100.00
